createdAt,value
2022-12-08T00:01:34.310Z,71.80
2022-12-08T00:04:04.571Z,68.10
2022-12-08T00:06:59.715Z,80.50
2022-12-08T00:09:42.333Z,70.60
2022-12-08T00:12:16.541Z,75.00
2022-12-08T00:14:47.284Z,76.50
2022-12-08T00:19:44.475Z,55.80
2022-12-08T00:22:13.034Z,65.80
2022-12-08T00:24:44.102Z,68.60
2022-12-08T00:27:14.153Z,70.00
2022-12-08T00:29:44.460Z,71.20
2022-12-08T00:32:12.856Z,66.20
2022-12-08T00:34:40.898Z,72.10
2022-12-08T00:37:08.849Z,68.70
2022-12-08T00:39:36.787Z,59.00
2022-12-08T00:42:13.911Z,53.70
2022-12-08T00:44:43.826Z,49.10
2022-12-08T00:47:12.897Z,59.80
2022-12-08T00:49:41.691Z,59.90
2022-12-08T00:52:09.591Z,58.00
2022-12-08T00:54:37.537Z,59.60
2022-12-08T00:57:06.186Z,64.80
2022-12-08T00:59:34.228Z,59.10
2022-12-08T01:02:02.137Z,62.80
2022-12-08T01:04:30.415Z,59.50
2022-12-08T01:06:58.288Z,65.60
2022-12-08T01:09:26.357Z,58.90
2022-12-08T01:11:54.661Z,58.20
2022-12-08T01:14:22.565Z,43.10
2022-12-08T01:16:50.968Z,52.90
2022-12-08T01:19:19.342Z,59.70
2022-12-08T01:21:47.346Z,55.80
2022-12-08T01:24:21.708Z,55.10
2022-12-08T01:26:50.968Z,59.30
2022-12-08T01:29:18.879Z,59.30
2022-12-08T01:31:47.038Z,51.40
2022-12-08T01:34:15.077Z,57.10
2022-12-08T01:36:44.465Z,47.40
2022-12-08T01:39:17.957Z,49.80
2022-12-08T01:41:47.768Z,45.00
2022-12-08T01:44:15.728Z,49.90
2022-12-08T01:46:48.830Z,45.10
2022-12-08T01:49:43.105Z,44.40
2022-12-08T01:52:13.654Z,42.70
2022-12-08T01:54:53.092Z,53.00
2022-12-08T01:57:24.025Z,54.60
2022-12-08T01:59:58.855Z,55.00
2022-12-08T02:02:33.605Z,51.30
2022-12-08T02:05:03.506Z,50.20
2022-12-08T02:07:31.781Z,49.80
2022-12-08T02:10:01.000Z,53.80
2022-12-08T02:12:29.755Z,48.10
2022-12-08T02:15:04.852Z,51.00
2022-12-08T02:17:49.865Z,48.50
2022-12-08T02:20:27.614Z,50.20
2022-12-08T02:23:01.514Z,46.30
2022-12-08T02:25:47.892Z,53.20
2022-12-08T02:28:35.981Z,47.80
2022-12-08T02:31:51.364Z,43.50
2022-12-08T02:34:30.550Z,48.40
2022-12-08T02:37:20.580Z,55.20
2022-12-08T02:40:09.598Z,70.50
2022-12-08T02:42:44.599Z,67.70
2022-12-08T02:45:23.070Z,70.70
2022-12-08T02:47:52.223Z,60.00
2022-12-08T02:50:20.487Z,62.70
2022-12-08T02:52:49.101Z,54.60
2022-12-08T02:55:20.090Z,53.90
2022-12-08T02:58:26.095Z,48.10
2022-12-08T03:01:17.991Z,52.30
2022-12-08T03:04:13.900Z,46.60
2022-12-08T03:07:00.280Z,42.10
2022-12-08T03:09:44.781Z,50.40
2022-12-08T03:12:26.425Z,58.80
2022-12-08T03:14:58.768Z,54.30
2022-12-08T03:17:30.011Z,50.50
2022-12-08T03:20:04.191Z,54.80
2022-12-08T03:22:33.129Z,59.30
2022-12-08T03:25:01.505Z,71.60
2022-12-08T03:27:31.533Z,59.80
2022-12-08T03:30:01.130Z,65.90
2022-12-08T03:32:48.159Z,58.50
2022-12-08T03:35:24.291Z,54.50
2022-12-08T03:37:52.804Z,55.80
2022-12-08T03:40:21.016Z,53.40
2022-12-08T03:42:48.903Z,55.70
2022-12-08T03:45:16.932Z,55.90
2022-12-08T03:47:45.180Z,59.60
2022-12-08T03:50:13.255Z,61.70
2022-12-08T03:52:41.211Z,51.20
2022-12-08T03:55:09.496Z,58.50
2022-12-08T03:57:37.910Z,63.20
2022-12-08T04:00:07.624Z,64.00
2022-12-08T04:02:35.762Z,50.60
2022-12-08T04:05:03.907Z,48.90
2022-12-08T04:07:31.891Z,35.30
2022-12-08T04:10:00.179Z,45.60
2022-12-08T04:12:28.059Z,48.90
2022-12-08T04:14:55.972Z,47.30
2022-12-08T04:17:23.903Z,41.60
2022-12-08T04:19:52.573Z,44.10
2022-12-08T04:22:20.509Z,41.00
2022-12-08T04:24:48.890Z,32.00
2022-12-08T04:27:16.768Z,26.90
2022-12-08T04:29:44.611Z,28.60
2022-12-08T04:32:12.874Z,27.40
2022-12-08T04:34:40.887Z,30.60
2022-12-08T04:37:08.880Z,31.80
2022-12-08T04:39:37.082Z,42.40
2022-12-08T04:42:05.181Z,47.90
2022-12-08T04:44:33.053Z,39.90
2022-12-08T04:47:01.008Z,46.00
2022-12-08T04:49:29.145Z,38.90
2022-12-08T04:51:57.119Z,37.40
2022-12-08T04:54:25.224Z,25.20
2022-12-08T04:56:53.207Z,25.40
2022-12-08T04:59:21.219Z,35.10
2022-12-08T05:01:49.375Z,35.90
2022-12-08T05:04:17.546Z,44.30
2022-12-08T05:06:45.961Z,41.60
2022-12-08T05:09:13.988Z,32.90
2022-12-08T05:11:46.962Z,38.20
2022-12-08T05:14:18.999Z,33.50
2022-12-08T05:16:47.968Z,42.30
2022-12-08T05:19:16.696Z,38.80
2022-12-08T05:21:45.362Z,36.40
2022-12-08T05:24:13.299Z,44.30
2022-12-08T05:26:41.399Z,32.40
2022-12-08T05:29:09.849Z,33.90
2022-12-08T05:31:37.945Z,24.20
2022-12-08T05:34:05.926Z,26.30
2022-12-08T05:36:33.976Z,30.60
2022-12-08T05:39:01.920Z,32.00
2022-12-08T05:41:29.845Z,33.70
2022-12-08T05:43:57.767Z,33.50
2022-12-08T05:46:25.946Z,32.70
2022-12-08T05:48:54.067Z,32.00
2022-12-08T05:51:24.273Z,38.60
2022-12-08T05:53:53.028Z,39.60
2022-12-08T05:56:22.231Z,40.30
2022-12-08T05:58:50.392Z,33.00
2022-12-08T06:01:22.683Z,28.80
2022-12-08T06:03:51.401Z,33.00
2022-12-08T06:06:20.167Z,34.20
2022-12-08T06:08:48.147Z,36.70
2022-12-08T06:11:25.552Z,29.10
2022-12-08T06:13:54.694Z,31.00
2022-12-08T06:16:23.886Z,45.00
2022-12-08T06:18:52.387Z,28.00
2022-12-08T06:21:21.050Z,34.50
2022-12-08T06:23:51.286Z,29.60
2022-12-08T06:26:20.610Z,31.70
2022-12-08T06:28:49.485Z,23.90
2022-12-08T06:31:27.966Z,26.10
2022-12-08T06:33:56.035Z,31.20
2022-12-08T06:36:26.234Z,29.20
2022-12-08T06:38:54.275Z,28.60
2022-12-08T06:41:22.359Z,29.30
2022-12-08T06:43:50.645Z,27.10
2022-12-08T06:46:20.358Z,31.80
2022-12-08T06:48:50.477Z,21.20
2022-12-08T06:51:22.060Z,23.30
2022-12-08T06:53:50.041Z,23.20
2022-12-08T06:56:20.114Z,22.70
2022-12-08T06:58:52.505Z,21.50
2022-12-08T07:01:21.599Z,21.20
2022-12-08T07:03:49.750Z,25.80
2022-12-08T07:06:23.899Z,23.00
2022-12-08T07:08:52.195Z,18.90
2022-12-08T07:11:22.190Z,23.80
2022-12-08T07:13:51.597Z,27.80
2022-12-08T07:16:19.799Z,23.50
2022-12-08T07:18:47.836Z,29.40
2022-12-08T07:21:17.604Z,18.10
2022-12-08T07:23:46.867Z,23.60
2022-12-08T07:26:15.408Z,22.40
2022-12-08T07:28:43.773Z,24.40
2022-12-08T07:31:21.165Z,30.70
2022-12-08T07:33:50.358Z,31.40
2022-12-08T07:36:18.772Z,28.20
2022-12-08T07:38:47.270Z,27.40
2022-12-08T07:41:23.244Z,27.30
2022-12-08T07:43:53.574Z,26.70
2022-12-08T07:46:24.171Z,26.00
2022-12-08T07:51:21.208Z,30.30
2022-12-08T07:53:54.249Z,30.50
2022-12-08T07:56:23.733Z,28.90
2022-12-08T07:58:51.997Z,42.10
2022-12-08T08:01:26.548Z,39.90
2022-12-08T08:03:57.190Z,33.70
2022-12-08T08:06:25.246Z,31.60
2022-12-08T08:08:53.431Z,30.40
2022-12-08T08:11:21.918Z,30.20
2022-12-08T08:13:51.041Z,31.50
2022-12-08T08:16:19.873Z,29.30
2022-12-08T08:18:50.035Z,25.80
2022-12-08T08:24:08.916Z,31.70
2022-12-08T08:26:37.419Z,28.80
2022-12-08T08:29:05.529Z,26.50
2022-12-08T08:31:33.552Z,28.90
2022-12-08T08:34:06.141Z,27.00
2022-12-08T08:36:34.628Z,31.50
2022-12-08T08:39:03.402Z,30.50
2022-12-08T08:41:31.462Z,28.30
2022-12-08T08:43:59.500Z,29.50
2022-12-08T08:46:27.763Z,32.30
2022-12-08T08:48:56.390Z,30.10
2022-12-08T08:51:24.601Z,31.30
2022-12-08T08:53:52.456Z,27.10
2022-12-08T08:56:20.422Z,29.00
2022-12-08T08:58:49.655Z,24.40
2022-12-08T09:01:21.083Z,25.90
2022-12-08T09:03:49.731Z,25.80
2022-12-08T09:06:18.307Z,40.00
2022-12-08T09:08:46.936Z,21.50
2022-12-08T09:11:15.442Z,26.70
2022-12-08T09:13:43.452Z,27.60
2022-12-08T09:16:11.972Z,25.50
2022-12-08T09:18:40.056Z,26.20
2022-12-08T09:21:13.272Z,19.40
2022-12-08T09:23:41.216Z,19.10
2022-12-08T09:26:10.170Z,27.30
2022-12-08T09:28:38.425Z,26.00
2022-12-08T09:31:06.449Z,24.50
2022-12-08T09:33:34.579Z,25.00
2022-12-08T09:36:04.401Z,27.90
2022-12-08T09:38:32.840Z,24.40
2022-12-08T09:41:04.408Z,33.90
2022-12-08T09:43:51.864Z,26.40
2022-12-08T09:46:20.941Z,27.80
2022-12-08T09:48:56.977Z,30.00
2022-12-08T09:51:27.166Z,27.80
2022-12-08T09:54:03.289Z,25.00
2022-12-08T09:56:35.780Z,28.70
2022-12-08T09:59:30.741Z,33.30
2022-12-08T10:02:00.496Z,23.20
2022-12-08T10:04:35.183Z,24.60
2022-12-08T10:07:25.117Z,28.40
2022-12-08T10:10:06.099Z,30.60
2022-12-08T10:12:38.154Z,30.90
2022-12-08T10:15:48.771Z,22.00
2022-12-08T10:18:25.025Z,25.40
2022-12-08T10:20:54.545Z,22.20
2022-12-08T10:23:31.856Z,28.60
2022-12-08T10:26:07.639Z,23.80
2022-12-08T10:28:40.046Z,30.60
2022-12-08T10:31:17.992Z,25.80
2022-12-08T10:33:48.322Z,23.60
2022-12-08T10:36:16.213Z,27.00
2022-12-08T10:38:44.295Z,22.50
2022-12-08T10:41:12.476Z,25.20
2022-12-08T10:43:48.105Z,35.10
2022-12-08T10:46:20.698Z,22.50
2022-12-08T10:48:52.733Z,26.40
2022-12-08T10:51:42.092Z,33.20
2022-12-08T10:54:33.372Z,23.90
2022-12-08T10:57:01.644Z,24.40
2022-12-08T10:59:32.868Z,33.70
2022-12-08T11:02:02.548Z,25.50
2022-12-08T11:04:36.661Z,28.50
2022-12-08T11:07:06.539Z,31.40
2022-12-08T11:09:48.686Z,26.20
2022-12-08T11:12:18.618Z,41.70
2022-12-08T11:14:56.238Z,35.80
2022-12-08T11:17:27.344Z,27.00
2022-12-08T11:20:06.498Z,31.00
2022-12-08T11:22:38.077Z,34.30
2022-12-08T11:27:43.582Z,27.90
2022-12-08T11:30:28.020Z,30.40
2022-12-08T11:33:01.473Z,29.70
2022-12-08T11:35:37.526Z,28.00
2022-12-08T11:38:22.280Z,19.30
2022-12-08T11:40:54.424Z,23.20
2022-12-08T11:43:25.362Z,22.50
2022-12-08T11:48:41.191Z,23.00
2022-12-08T11:51:36.716Z,25.30
2022-12-08T11:54:06.342Z,27.50
2022-12-08T11:56:39.000Z,24.40
2022-12-08T11:59:13.479Z,39.30
2022-12-08T12:01:42.854Z,31.60
2022-12-08T12:04:22.223Z,29.50
2022-12-08T12:06:56.157Z,20.90
2022-12-08T12:10:03.788Z,16.10
2022-12-08T12:12:37.871Z,15.80
2022-12-08T12:15:27.897Z,16.70
2022-12-08T12:17:59.183Z,18.50
2022-12-08T12:20:53.176Z,16.50
2022-12-08T12:23:39.117Z,19.90
2022-12-08T12:26:10.235Z,12.40
2022-12-08T12:29:08.604Z,13.90
2022-12-08T12:31:42.025Z,18.00
2022-12-08T12:34:27.238Z,14.70
2022-12-08T12:37:15.612Z,19.50
2022-12-08T12:39:52.914Z,15.90
2022-12-08T12:42:39.575Z,15.40
2022-12-08T12:45:16.174Z,12.70
2022-12-08T12:47:55.895Z,12.80
2022-12-08T12:50:33.508Z,14.80
2022-12-08T12:53:10.680Z,21.90
2022-12-08T12:56:02.472Z,14.30
2022-12-08T12:58:30.434Z,17.50
2022-12-08T13:01:13.966Z,19.20
2022-12-08T13:04:07.312Z,28.00
2022-12-08T13:06:40.838Z,25.70
2022-12-08T13:09:22.290Z,25.80
2022-12-08T13:11:54.153Z,26.00
2022-12-08T13:14:29.823Z,28.40
2022-12-08T13:17:00.152Z,23.60
2022-12-08T13:19:32.147Z,22.70
2022-12-08T13:22:00.748Z,23.30
2022-12-08T13:24:32.579Z,21.00
2022-12-08T13:27:03.794Z,35.30
2022-12-08T13:29:33.429Z,26.80
2022-12-08T13:32:03.087Z,25.80
2022-12-08T13:34:42.163Z,24.90
2022-12-08T13:37:16.147Z,25.10
2022-12-08T13:39:51.653Z,22.80
2022-12-08T13:42:32.632Z,33.30
2022-12-08T13:48:44.631Z,21.50
2022-12-08T13:53:15.845Z,20.50
2022-12-08T13:57:36.871Z,22.80
2022-12-08T14:00:15.968Z,24.30
2022-12-08T14:02:48.419Z,25.30
2022-12-08T14:05:21.872Z,24.60
2022-12-08T14:07:55.425Z,25.70
2022-12-08T14:10:27.595Z,31.00
2022-12-08T14:13:01.848Z,27.50
2022-12-08T14:15:37.609Z,34.10
2022-12-08T14:18:21.640Z,28.50
2022-12-08T14:21:20.303Z,38.70
2022-12-08T14:23:49.249Z,45.30
2022-12-08T14:26:17.960Z,36.50
2022-12-08T14:28:46.012Z,43.10
2022-12-08T14:31:15.022Z,35.10
2022-12-08T14:33:43.324Z,33.90
2022-12-08T14:36:15.822Z,34.20
2022-12-08T14:38:45.241Z,33.70
2022-12-08T14:41:13.226Z,35.00
2022-12-08T14:43:43.005Z,30.50
2022-12-08T14:46:22.335Z,26.30
2022-12-08T14:48:50.562Z,30.10
2022-12-08T14:51:26.520Z,37.30
2022-12-08T14:54:09.672Z,41.00
2022-12-08T14:56:41.886Z,36.50
2022-12-08T14:59:17.732Z,28.80
2022-12-08T15:01:49.452Z,28.70
2022-12-08T15:04:23.195Z,23.50
2022-12-08T15:07:22.811Z,23.30
2022-12-08T15:10:09.640Z,24.20
2022-12-08T15:12:37.807Z,28.70
2022-12-08T15:15:08.558Z,41.80
2022-12-08T15:20:40.918Z,35.20
2022-12-08T15:23:42.629Z,22.30
2022-12-08T15:26:21.088Z,29.30
2022-12-08T15:28:49.245Z,40.90
2022-12-08T15:31:18.034Z,27.20
2022-12-08T15:33:45.936Z,37.70
2022-12-08T15:36:14.162Z,23.00
2022-12-08T15:38:43.260Z,25.60
2022-12-08T15:41:14.837Z,37.10
2022-12-08T15:43:43.622Z,25.80
2022-12-08T15:46:12.002Z,30.10
2022-12-08T15:48:40.219Z,30.00
2022-12-08T15:51:08.287Z,45.10
2022-12-08T15:53:36.134Z,35.60
2022-12-08T15:58:56.855Z,40.90
2022-12-08T16:01:26.619Z,43.70
2022-12-08T16:04:47.749Z,37.10
2022-12-08T16:09:38.947Z,31.90
2022-12-08T16:13:26.656Z,39.30
2022-12-08T16:15:51.235Z,40.10
2022-12-08T16:18:23.928Z,38.50
2022-12-08T16:21:16.870Z,33.80
2022-12-08T16:23:43.719Z,31.10
2022-12-08T16:29:07.499Z,37.10
2022-12-08T16:31:35.611Z,29.10
2022-12-08T16:34:03.704Z,32.30
2022-12-08T16:36:31.749Z,29.70
2022-12-08T16:38:59.654Z,35.50
2022-12-08T16:41:45.827Z,29.30
2022-12-08T16:44:13.916Z,31.00
2022-12-08T16:46:42.120Z,26.80
2022-12-08T16:49:10.075Z,24.80
2022-12-08T16:51:38.605Z,22.10
2022-12-08T16:54:06.492Z,23.90
2022-12-08T16:56:34.384Z,21.80
2022-12-08T16:59:02.732Z,30.50
2022-12-08T17:01:31.573Z,31.70
2022-12-08T17:04:31.007Z,27.70
2022-12-08T17:06:47.997Z,29.40
2022-12-08T17:09:15.887Z,28.70
2022-12-08T17:11:44.161Z,30.40
2022-12-08T17:14:13.540Z,28.90
2022-12-08T17:16:42.353Z,43.60
2022-12-08T17:19:13.408Z,34.00
2022-12-08T17:21:43.484Z,34.00
2022-12-08T17:24:14.619Z,34.40
2022-12-08T17:26:43.875Z,29.40
2022-12-08T17:29:11.969Z,30.50
2022-12-08T17:31:39.900Z,31.10
2022-12-08T17:34:11.100Z,30.70
2022-12-08T17:36:39.360Z,34.40
2022-12-08T17:39:12.147Z,38.70
2022-12-08T17:41:42.942Z,38.00
2022-12-08T17:44:13.509Z,35.10
2022-12-08T17:46:45.244Z,41.20
2022-12-08T17:49:20.452Z,41.90
2022-12-08T17:51:51.068Z,40.50
2022-12-08T17:54:20.079Z,42.30
2022-12-08T17:56:48.368Z,44.20
2022-12-08T17:59:16.618Z,50.50
2022-12-08T18:01:44.832Z,50.90
2022-12-08T18:04:13.207Z,44.70
2022-12-08T18:06:41.530Z,43.50
2022-12-08T18:09:09.738Z,44.80
2022-12-08T18:11:37.877Z,48.10
2022-12-08T18:14:11.063Z,42.70
2022-12-08T18:16:41.583Z,39.70
2022-12-08T18:21:38.251Z,36.20
2022-12-08T18:24:07.225Z,42.00
2022-12-08T18:26:35.483Z,38.90
2022-12-08T18:29:03.785Z,38.70
2022-12-08T18:31:31.761Z,41.70
2022-12-08T18:33:59.791Z,44.60
2022-12-08T18:36:27.796Z,44.20
2022-12-08T18:38:56.019Z,43.40
2022-12-08T18:41:26.088Z,39.90
2022-12-08T18:43:55.742Z,48.10
2022-12-08T18:46:25.314Z,43.60
2022-12-08T18:48:53.375Z,48.40
2022-12-08T18:51:24.182Z,42.00
2022-12-08T18:53:52.840Z,35.70
2022-12-08T18:56:26.806Z,33.80
2022-12-08T18:59:01.307Z,32.70
2022-12-08T19:01:33.016Z,32.00
2022-12-08T19:06:52.242Z,36.50
2022-12-08T19:09:20.653Z,39.90
2022-12-08T19:11:49.121Z,48.10
2022-12-08T19:14:19.223Z,47.00
2022-12-08T19:16:51.336Z,46.60
2022-12-08T19:19:19.282Z,50.70
2022-12-08T19:21:47.184Z,44.20
2022-12-08T19:24:15.705Z,56.80
2022-12-08T19:26:43.721Z,70.30
2022-12-08T19:29:12.280Z,61.40
2022-12-08T19:31:41.681Z,54.80
2022-12-08T19:34:11.886Z,50.10
2022-12-08T19:36:42.950Z,52.10
2022-12-08T19:39:38.823Z,41.70
2022-12-08T19:42:36.072Z,37.50
2022-12-08T19:45:12.037Z,34.20
2022-12-08T19:47:41.306Z,35.70
2022-12-08T19:50:31.069Z,46.00
2022-12-08T19:52:59.623Z,47.40
2022-12-08T19:55:28.183Z,44.20
2022-12-08T19:57:57.109Z,39.50
2022-12-08T20:00:25.812Z,51.90
2022-12-08T20:02:54.073Z,57.10
2022-12-08T20:05:22.832Z,49.90
2022-12-08T20:07:50.976Z,52.50
2022-12-08T20:10:23.265Z,44.70
2022-12-08T20:12:51.812Z,41.40
2022-12-08T20:15:19.927Z,43.30
2022-12-08T20:17:47.899Z,34.00
2022-12-08T20:20:16.171Z,34.10
2022-12-08T20:22:45.261Z,34.60
2022-12-08T20:25:13.520Z,39.80
2022-12-08T20:27:41.753Z,37.10
2022-12-08T20:30:16.530Z,37.10
2022-12-08T20:32:45.896Z,44.60
2022-12-08T20:35:15.512Z,37.70
2022-12-08T20:37:43.644Z,39.50
2022-12-08T20:40:12.172Z,37.00
2022-12-08T20:42:40.074Z,47.00
2022-12-08T20:45:09.913Z,37.80
2022-12-08T20:47:38.282Z,38.30
2022-12-08T20:50:07.472Z,36.50
2022-12-08T20:52:38.126Z,32.40
2022-12-08T20:55:07.240Z,34.30
2022-12-08T20:57:35.779Z,33.40
2022-12-08T21:00:05.285Z,37.90
2022-12-08T21:02:33.825Z,34.10
2022-12-08T21:05:02.391Z,35.60
2022-12-08T21:07:30.618Z,37.30
2022-12-08T21:09:59.116Z,34.00
2022-12-08T21:12:27.209Z,37.30
2022-12-08T21:14:55.193Z,30.60
2022-12-08T21:17:23.758Z,31.30
2022-12-08T21:19:51.732Z,32.10
2022-12-08T21:22:21.096Z,30.80
2022-12-08T21:24:49.337Z,37.40
2022-12-08T21:27:17.343Z,34.90
2022-12-08T21:29:45.543Z,29.00
2022-12-08T21:32:14.458Z,30.50
2022-12-08T21:34:44.284Z,34.30
2022-12-08T21:37:12.415Z,31.80
2022-12-08T21:39:40.367Z,35.30
2022-12-08T21:42:33.926Z,32.00
2022-12-08T21:45:02.473Z,35.70
2022-12-08T21:47:30.730Z,35.70
2022-12-08T21:49:58.798Z,33.10
2022-12-08T21:52:27.260Z,30.40
2022-12-08T21:54:55.535Z,36.60
2022-12-08T21:57:24.554Z,38.40
2022-12-08T21:59:52.760Z,40.00
2022-12-08T22:02:22.676Z,36.40
2022-12-08T22:04:52.979Z,41.10
2022-12-08T22:07:22.058Z,35.30
2022-12-08T22:09:49.968Z,40.80
2022-12-08T22:12:18.221Z,36.40
2022-12-08T22:14:46.303Z,40.70
2022-12-08T22:17:14.390Z,41.60
2022-12-08T22:19:43.640Z,42.60
2022-12-08T22:22:11.727Z,41.80
2022-12-08T22:24:39.799Z,42.30
2022-12-08T22:27:08.183Z,44.50
2022-12-08T22:29:36.127Z,42.30
2022-12-08T22:32:04.234Z,46.70
2022-12-08T22:34:32.514Z,42.00
2022-12-08T22:37:00.826Z,40.40
2022-12-08T22:39:28.789Z,46.30
2022-12-08T22:41:56.637Z,49.80
2022-12-08T22:44:24.597Z,43.90
2022-12-08T22:46:52.583Z,47.00
2022-12-08T22:49:20.497Z,41.50
2022-12-08T22:51:48.440Z,44.10
2022-12-08T22:54:16.651Z,36.10
2022-12-08T22:56:44.982Z,14.00
2022-12-08T22:59:12.887Z,5.60
2022-12-08T23:01:41.202Z,5.40
2022-12-08T23:04:17.241Z,4.90
2022-12-08T23:06:46.126Z,5.40
2022-12-08T23:09:14.538Z,5.20
2022-12-08T23:11:44.213Z,6.30
2022-12-08T23:14:12.505Z,10.10
2022-12-08T23:16:40.589Z,7.80
2022-12-08T23:19:08.647Z,7.80
2022-12-08T23:21:36.962Z,9.00
2022-12-08T23:24:05.291Z,11.50
2022-12-08T23:26:35.512Z,8.80
2022-12-08T23:29:04.563Z,15.90
2022-12-08T23:31:32.880Z,15.30
2022-12-08T23:34:02.575Z,11.80
2022-12-08T23:36:31.652Z,17.10
2022-12-08T23:38:59.750Z,18.30
2022-12-08T23:41:28.098Z,16.50
2022-12-08T23:43:56.429Z,18.90
2022-12-08T23:46:24.914Z,20.70
2022-12-08T23:48:52.861Z,16.60
2022-12-08T23:51:21.426Z,18.00
2022-12-08T23:53:49.352Z,22.60
2022-12-08T23:56:18.497Z,21.20
2022-12-08T23:58:46.816Z,17.80
